sensor_id;sensor_type;location;lat;lon;timestamp;P1;durP1;ratioP1;P2;durP2;ratioP2
41984;SDS011;28319;48.116;10.818;2023-03-01T00:00:51;12.23;;;8.60;;
41984;SDS011;28319;48.116;10.818;2023-03-01T00:05:53;12.60;;;8.77;;
41984;SDS011;28319;48.116;10.818;2023-03-01T00:11:03;13.53;;;8.40;;
41984;SDS011;28319;48.116;10.818;2023-03-01T00:16:07;14.27;;;9.37;;
41984;SDS011;28319;48.116;10.818;2023-03-01T00:21:11;13.60;;;8.30;;
41984;SDS011;28319;48.116;10.818;2023-03-01T00:26:13;13.57;;;9.03;;
41984;SDS011;28319;48.116;10.818;2023-03-01T00:31:18;12.73;;;8.07;;
41984;SDS011;28319;48.116;10.818;2023-03-01T00:36:20;12.10;;;7.60;;
41984;SDS011;28319;48.116;10.818;2023-03-01T00:41:23;14.37;;;8.97;;
41984;SDS011;28319;48.116;10.818;2023-03-01T00:46:28;14.27;;;8.83;;
41984;SDS011;28319;48.116;10.818;2023-03-01T00:51:31;13.23;;;8.67;;
41984;SDS011;28319;48.116;10.818;2023-03-01T00:56:33;14.07;;;8.23;;
41984;SDS011;28319;48.116;10.818;2023-03-01T01:01:37;13.50;;;9.00;;
41984;SDS011;28319;48.116;10.818;2023-03-01T01:06:40;13.63;;;9.07;;
41984;SDS011;28319;48.116;10.818;2023-03-01T01:11:43;12.47;;;8.87;;
41984;SDS011;28319;48.116;10.818;2023-03-01T01:16:47;13.43;;;9.10;;
41984;SDS011;28319;48.116;10.818;2023-03-01T01:21:49;13.90;;;8.73;;
41984;SDS011;28319;48.116;10.818;2023-03-01T01:26:52;14.60;;;9.30;;
41984;SDS011;28319;48.116;10.818;2023-03-01T01:31:55;12.40;;;8.47;;
41984;SDS011;28319;48.116;10.818;2023-03-01T01:36:57;16.73;;;9.50;;
41984;SDS011;28319;48.116;10.818;2023-03-01T01:42:02;12.20;;;8.90;;
41984;SDS011;28319;48.116;10.818;2023-03-01T01:47:07;12.43;;;9.20;;
41984;SDS011;28319;48.116;10.818;2023-03-01T01:52:11;16.03;;;9.67;;
41984;SDS011;28319;48.116;10.818;2023-03-01T01:57:16;12.57;;;8.50;;
41984;SDS011;28319;48.116;10.818;2023-03-01T02:02:21;14.67;;;9.17;;
41984;SDS011;28319;48.116;10.818;2023-03-01T02:07:23;11.43;;;8.87;;
41984;SDS011;28319;48.116;10.818;2023-03-01T02:12:26;15.17;;;9.00;;
41984;SDS011;28319;48.116;10.818;2023-03-01T02:17:30;17.07;;;9.83;;
41984;SDS011;28319;48.116;10.818;2023-03-01T02:22:33;13.57;;;8.23;;
41984;SDS011;28319;48.116;10.818;2023-03-01T02:32:40;14.17;;;9.13;;
41984;SDS011;28319;48.116;10.818;2023-03-01T02:37:43;16.57;;;9.47;;
41984;SDS011;28319;48.116;10.818;2023-03-01T02:42:47;14.37;;;9.33;;
41984;SDS011;28319;48.116;10.818;2023-03-01T02:47:54;14.33;;;9.00;;
41984;SDS011;28319;48.116;10.818;2023-03-01T02:52:57;13.77;;;8.87;;
41984;SDS011;28319;48.116;10.818;2023-03-01T02:58:03;13.70;;;8.70;;
41984;SDS011;28319;48.116;10.818;2023-03-01T03:03:07;15.13;;;8.70;;
41984;SDS011;28319;48.116;10.818;2023-03-01T03:08:09;14.47;;;8.73;;
41984;SDS011;28319;48.116;10.818;2023-03-01T03:13:12;13.07;;;8.73;;
41984;SDS011;28319;48.116;10.818;2023-03-01T03:18:16;13.53;;;8.63;;
41984;SDS011;28319;48.116;10.818;2023-03-01T03:23:18;13.30;;;9.03;;
41984;SDS011;28319;48.116;10.818;2023-03-01T03:28:21;14.17;;;9.20;;
41984;SDS011;28319;48.116;10.818;2023-03-01T03:33:24;11.23;;;7.87;;
41984;SDS011;28319;48.116;10.818;2023-03-01T03:38:27;18.47;;;9.07;;
41984;SDS011;28319;48.116;10.818;2023-03-01T03:43:29;13.53;;;8.60;;
41984;SDS011;28319;48.116;10.818;2023-03-01T03:48:34;13.10;;;8.97;;
41984;SDS011;28319;48.116;10.818;2023-03-01T03:53:36;13.77;;;8.73;;
41984;SDS011;28319;48.116;10.818;2023-03-01T03:58:38;13.27;;;8.50;;
41984;SDS011;28319;48.116;10.818;2023-03-01T04:03:42;14.27;;;9.00;;
41984;SDS011;28319;48.116;10.818;2023-03-01T04:08:46;13.43;;;8.77;;
41984;SDS011;28319;48.116;10.818;2023-03-01T04:13:51;15.57;;;9.27;;
41984;SDS011;28319;48.116;10.818;2023-03-01T04:18:55;14.27;;;8.60;;
41984;SDS011;28319;48.116;10.818;2023-03-01T04:23:59;14.23;;;8.70;;
41984;SDS011;28319;48.116;10.818;2023-03-01T04:29:03;14.00;;;8.73;;
41984;SDS011;28319;48.116;10.818;2023-03-01T04:34:07;13.47;;;8.43;;
41984;SDS011;28319;48.116;10.818;2023-03-01T04:39:09;12.63;;;8.07;;
41984;SDS011;28319;48.116;10.818;2023-03-01T04:44:13;12.87;;;9.00;;
41984;SDS011;28319;48.116;10.818;2023-03-01T04:49:16;15.17;;;9.33;;
41984;SDS011;28319;48.116;10.818;2023-03-01T04:54:19;13.53;;;9.10;;
41984;SDS011;28319;48.116;10.818;2023-03-01T04:59:21;13.90;;;8.93;;
41984;SDS011;28319;48.116;10.818;2023-03-01T05:04:24;12.27;;;8.80;;
41984;SDS011;28319;48.116;10.818;2023-03-01T05:09:27;14.70;;;8.97;;
41984;SDS011;28319;48.116;10.818;2023-03-01T05:14:29;15.73;;;9.33;;
41984;SDS011;28319;48.116;10.818;2023-03-01T05:19:33;15.30;;;9.20;;
41984;SDS011;28319;48.116;10.818;2023-03-01T05:24:36;15.03;;;9.27;;
41984;SDS011;28319;48.116;10.818;2023-03-01T05:29:38;14.27;;;9.37;;
41984;SDS011;28319;48.116;10.818;2023-03-01T05:34:42;13.40;;;9.00;;
41984;SDS011;28319;48.116;10.818;2023-03-01T05:39:46;12.03;;;8.77;;
41984;SDS011;28319;48.116;10.818;2023-03-01T05:44:50;12.47;;;9.13;;
41984;SDS011;28319;48.116;10.818;2023-03-01T05:49:53;13.47;;;9.17;;
41984;SDS011;28319;48.116;10.818;2023-03-01T05:54:56;16.77;;;9.30;;
41984;SDS011;28319;48.116;10.818;2023-03-01T05:59:58;15.43;;;8.77;;
41984;SDS011;28319;48.116;10.818;2023-03-01T06:05:02;11.70;;;8.50;;
41984;SDS011;28319;48.116;10.818;2023-03-01T06:10:04;13.90;;;9.17;;
41984;SDS011;28319;48.116;10.818;2023-03-01T06:15:08;15.53;;;9.50;;
41984;SDS011;28319;48.116;10.818;2023-03-01T06:20:13;17.07;;;9.63;;
41984;SDS011;28319;48.116;10.818;2023-03-01T06:25:16;16.20;;;9.57;;
41984;SDS011;28319;48.116;10.818;2023-03-01T06:30:19;14.53;;;9.13;;
41984;SDS011;28319;48.116;10.818;2023-03-01T06:35:23;16.10;;;10.00;;
41984;SDS011;28319;48.116;10.818;2023-03-01T06:40:29;16.10;;;9.63;;
41984;SDS011;28319;48.116;10.818;2023-03-01T06:45:32;15.73;;;10.17;;
41984;SDS011;28319;48.116;10.818;2023-03-01T06:50:36;14.00;;;8.70;;
41984;SDS011;28319;48.116;10.818;2023-03-01T06:55:38;16.87;;;10.60;;
41984;SDS011;28319;48.116;10.818;2023-03-01T07:00:41;16.20;;;9.37;;
41984;SDS011;28319;48.116;10.818;2023-03-01T07:05:45;18.20;;;10.00;;
41984;SDS011;28319;48.116;10.818;2023-03-01T07:10:54;15.13;;;9.93;;
41984;SDS011;28319;48.116;10.818;2023-03-01T07:15:56;17.40;;;9.30;;
41984;SDS011;28319;48.116;10.818;2023-03-01T07:21:04;13.20;;;8.87;;
41984;SDS011;28319;48.116;10.818;2023-03-01T07:26:07;15.20;;;9.57;;
41984;SDS011;28319;48.116;10.818;2023-03-01T07:31:09;15.97;;;9.87;;
41984;SDS011;28319;48.116;10.818;2023-03-01T07:36:12;15.33;;;9.63;;
41984;SDS011;28319;48.116;10.818;2023-03-01T07:41:15;12.83;;;9.37;;
41984;SDS011;28319;48.116;10.818;2023-03-01T07:46:17;14.87;;;9.23;;
41984;SDS011;28319;48.116;10.818;2023-03-01T07:51:22;13.97;;;9.33;;
41984;SDS011;28319;48.116;10.818;2023-03-01T07:56:24;17.80;;;9.43;;
41984;SDS011;28319;48.116;10.818;2023-03-01T08:01:27;20.17;;;9.93;;
41984;SDS011;28319;48.116;10.818;2023-03-01T08:06:30;15.13;;;9.27;;
41984;SDS011;28319;48.116;10.818;2023-03-01T08:11:33;15.17;;;9.37;;
41984;SDS011;28319;48.116;10.818;2023-03-01T08:16:35;14.83;;;9.40;;
41984;SDS011;28319;48.116;10.818;2023-03-01T08:21:39;16.17;;;9.70;;
41984;SDS011;28319;48.116;10.818;2023-03-01T08:26:41;13.03;;;8.70;;
41984;SDS011;28319;48.116;10.818;2023-03-01T08:31:43;15.67;;;9.70;;
41984;SDS011;28319;48.116;10.818;2023-03-01T08:36:47;18.07;;;10.43;;
41984;SDS011;28319;48.116;10.818;2023-03-01T08:41:50;15.73;;;9.50;;
41984;SDS011;28319;48.116;10.818;2023-03-01T08:46:52;17.90;;;10.30;;
41984;SDS011;28319;48.116;10.818;2023-03-01T08:51:57;16.57;;;9.70;;
41984;SDS011;28319;48.116;10.818;2023-03-01T08:57:01;14.43;;;9.67;;
41984;SDS011;28319;48.116;10.818;2023-03-01T09:02:03;18.57;;;10.13;;
41984;SDS011;28319;48.116;10.818;2023-03-01T09:07:07;15.23;;;9.77;;
41984;SDS011;28319;48.116;10.818;2023-03-01T09:12:09;15.03;;;9.20;;
41984;SDS011;28319;48.116;10.818;2023-03-01T09:17:12;16.33;;;10.30;;
41984;SDS011;28319;48.116;10.818;2023-03-01T09:22:15;15.90;;;10.60;;
41984;SDS011;28319;48.116;10.818;2023-03-01T09:27:18;19.10;;;10.30;;
41984;SDS011;28319;48.116;10.818;2023-03-01T09:32:20;16.60;;;10.10;;
41984;SDS011;28319;48.116;10.818;2023-03-01T09:37:24;17.50;;;10.57;;
41984;SDS011;28319;48.116;10.818;2023-03-01T09:42:27;21.47;;;10.70;;
41984;SDS011;28319;48.116;10.818;2023-03-01T09:47:31;16.10;;;10.40;;
41984;SDS011;28319;48.116;10.818;2023-03-01T09:52:38;21.70;;;12.47;;
41984;SDS011;28319;48.116;10.818;2023-03-01T09:57:43;16.60;;;10.97;;
41984;SDS011;28319;48.116;10.818;2023-03-01T10:02:48;19.17;;;10.57;;
41984;SDS011;28319;48.116;10.818;2023-03-01T10:07:56;15.77;;;10.40;;
41984;SDS011;28319;48.116;10.818;2023-03-01T10:13:01;20.17;;;10.67;;
41984;SDS011;28319;48.116;10.818;2023-03-01T10:18:06;16.30;;;9.57;;
41984;SDS011;28319;48.116;10.818;2023-03-01T10:23:13;16.77;;;10.47;;
41984;SDS011;28319;48.116;10.818;2023-03-01T10:28:16;16.50;;;10.50;;
41984;SDS011;28319;48.116;10.818;2023-03-01T10:33:20;15.60;;;9.43;;
41984;SDS011;28319;48.116;10.818;2023-03-01T10:38:25;16.97;;;11.17;;
41984;SDS011;28319;48.116;10.818;2023-03-01T10:43:32;18.40;;;11.53;;
41984;SDS011;28319;48.116;10.818;2023-03-01T10:48:42;16.47;;;10.20;;
41984;SDS011;28319;48.116;10.818;2023-03-01T10:53:48;17.00;;;10.07;;
41984;SDS011;28319;48.116;10.818;2023-03-01T10:58:58;18.63;;;10.83;;
41984;SDS011;28319;48.116;10.818;2023-03-01T11:04:10;16.50;;;10.53;;
41984;SDS011;28319;48.116;10.818;2023-03-01T11:09:14;16.30;;;10.53;;
41984;SDS011;28319;48.116;10.818;2023-03-01T11:14:17;15.37;;;10.03;;
41984;SDS011;28319;48.116;10.818;2023-03-01T11:19:20;15.97;;;10.40;;
41984;SDS011;28319;48.116;10.818;2023-03-01T11:24:26;19.03;;;10.60;;
41984;SDS011;28319;48.116;10.818;2023-03-01T11:29:30;18.20;;;10.27;;
41984;SDS011;28319;48.116;10.818;2023-03-01T11:34:37;17.87;;;10.23;;
41984;SDS011;28319;48.116;10.818;2023-03-01T11:39:43;18.23;;;11.00;;
41984;SDS011;28319;48.116;10.818;2023-03-01T11:44:50;17.23;;;10.90;;
41984;SDS011;28319;48.116;10.818;2023-03-01T11:50:00;16.23;;;10.30;;
41984;SDS011;28319;48.116;10.818;2023-03-01T11:55:16;16.63;;;10.60;;
41984;SDS011;28319;48.116;10.818;2023-03-01T12:00:23;15.87;;;10.83;;
41984;SDS011;28319;48.116;10.818;2023-03-01T12:10:52;17.17;;;10.30;;
41984;SDS011;28319;48.116;10.818;2023-03-01T12:16:03;17.77;;;10.57;;
41984;SDS011;28319;48.116;10.818;2023-03-01T12:21:12;16.73;;;10.40;;
41984;SDS011;28319;48.116;10.818;2023-03-01T12:26:18;16.73;;;10.63;;
41984;SDS011;28319;48.116;10.818;2023-03-01T12:31:29;14.77;;;10.07;;
41984;SDS011;28319;48.116;10.818;2023-03-01T12:36:39;16.53;;;9.93;;
41984;SDS011;28319;48.116;10.818;2023-03-01T12:41:47;15.40;;;10.03;;
41984;SDS011;28319;48.116;10.818;2023-03-01T12:46:58;19.03;;;11.00;;
41984;SDS011;28319;48.116;10.818;2023-03-01T12:52:03;14.87;;;10.77;;
41984;SDS011;28319;48.116;10.818;2023-03-01T12:57:14;16.47;;;11.60;;
41984;SDS011;28319;48.116;10.818;2023-03-01T13:02:19;19.20;;;11.63;;
41984;SDS011;28319;48.116;10.818;2023-03-01T13:07:28;14.83;;;10.70;;
41984;SDS011;28319;48.116;10.818;2023-03-01T13:18:03;15.13;;;10.90;;
41984;SDS011;28319;48.116;10.818;2023-03-01T13:23:07;20.30;;;11.77;;
41984;SDS011;28319;48.116;10.818;2023-03-01T13:33:40;15.77;;;10.60;;
41984;SDS011;28319;48.116;10.818;2023-03-01T13:38:44;15.63;;;10.57;;
41984;SDS011;28319;48.116;10.818;2023-03-01T13:43:47;14.40;;;9.93;;
41984;SDS011;28319;48.116;10.818;2023-03-01T13:48:52;16.47;;;10.70;;
41984;SDS011;28319;48.116;10.818;2023-03-01T13:53:56;15.50;;;11.30;;
41984;SDS011;28319;48.116;10.818;2023-03-01T13:59:00;16.73;;;10.30;;
41984;SDS011;28319;48.116;10.818;2023-03-01T14:04:17;15.73;;;11.17;;
41984;SDS011;28319;48.116;10.818;2023-03-01T14:09:21;16.73;;;10.93;;
41984;SDS011;28319;48.116;10.818;2023-03-01T14:14:29;15.70;;;11.43;;
41984;SDS011;28319;48.116;10.818;2023-03-01T14:19:34;13.87;;;9.93;;
41984;SDS011;28319;48.116;10.818;2023-03-01T14:24:37;16.63;;;10.77;;
41984;SDS011;28319;48.116;10.818;2023-03-01T15:48:03;16.00;;;11.23;;
41984;SDS011;28319;48.116;10.818;2023-03-01T15:53:06;15.50;;;10.30;;
41984;SDS011;28319;48.116;10.818;2023-03-01T15:58:13;13.67;;;9.50;;
41984;SDS011;28319;48.116;10.818;2023-03-01T16:03:17;16.07;;;10.30;;
41984;SDS011;28319;48.116;10.818;2023-03-01T16:08:21;14.47;;;9.83;;
41984;SDS011;28319;48.116;10.818;2023-03-01T16:13:24;13.07;;;9.00;;
41984;SDS011;28319;48.116;10.818;2023-03-01T16:18:28;13.10;;;9.13;;
41984;SDS011;28319;48.116;10.818;2023-03-01T16:23:31;17.33;;;10.53;;
41984;SDS011;28319;48.116;10.818;2023-03-01T16:28:33;16.20;;;9.47;;
41984;SDS011;28319;48.116;10.818;2023-03-01T16:33:37;14.70;;;9.07;;
41984;SDS011;28319;48.116;10.818;2023-03-01T16:38:39;14.13;;;10.03;;
41984;SDS011;28319;48.116;10.818;2023-03-01T16:43:42;20.33;;;11.37;;
41984;SDS011;28319;48.116;10.818;2023-03-01T16:48:48;15.50;;;10.73;;
41984;SDS011;28319;48.116;10.818;2023-03-01T16:53:51;13.13;;;8.23;;
41984;SDS011;28319;48.116;10.818;2023-03-01T16:58:53;12.90;;;8.40;;
41984;SDS011;28319;48.116;10.818;2023-03-01T17:03:57;13.93;;;9.20;;
41984;SDS011;28319;48.116;10.818;2023-03-01T17:09:01;11.43;;;8.30;;
41984;SDS011;28319;48.116;10.818;2023-03-01T17:14:04;14.43;;;8.93;;
41984;SDS011;28319;48.116;10.818;2023-03-01T17:19:08;19.67;;;11.87;;
41984;SDS011;28319;48.116;10.818;2023-03-01T17:24:10;16.73;;;10.87;;
41984;SDS011;28319;48.116;10.818;2023-03-01T17:29:13;16.27;;;10.57;;
41984;SDS011;28319;48.116;10.818;2023-03-01T17:34:19;18.97;;;12.60;;
41984;SDS011;28319;48.116;10.818;2023-03-01T17:39:21;18.97;;;11.80;;
41984;SDS011;28319;48.116;10.818;2023-03-01T17:44:29;16.23;;;11.00;;
41984;SDS011;28319;48.116;10.818;2023-03-01T17:49:34;15.10;;;9.00;;
41984;SDS011;28319;48.116;10.818;2023-03-01T17:54:37;14.30;;;9.37;;
41984;SDS011;28319;48.116;10.818;2023-03-01T17:59:39;12.87;;;9.10;;
41984;SDS011;28319;48.116;10.818;2023-03-01T18:04:43;12.23;;;8.87;;
41984;SDS011;28319;48.116;10.818;2023-03-01T18:09:46;14.47;;;9.17;;
41984;SDS011;28319;48.116;10.818;2023-03-01T18:14:48;15.77;;;10.07;;
41984;SDS011;28319;48.116;10.818;2023-03-01T18:19:54;19.83;;;12.67;;
41984;SDS011;28319;48.116;10.818;2023-03-01T18:24:56;12.60;;;9.23;;
41984;SDS011;28319;48.116;10.818;2023-03-01T18:29:58;14.00;;;9.03;;
41984;SDS011;28319;48.116;10.818;2023-03-01T18:35:02;14.37;;;9.43;;
41984;SDS011;28319;48.116;10.818;2023-03-01T18:40:05;12.97;;;8.73;;
41984;SDS011;28319;48.116;10.818;2023-03-01T18:45:08;13.40;;;9.20;;
41984;SDS011;28319;48.116;10.818;2023-03-01T18:50:12;13.03;;;8.67;;
41984;SDS011;28319;48.116;10.818;2023-03-01T18:55:14;12.40;;;9.00;;
41984;SDS011;28319;48.116;10.818;2023-03-01T19:00:17;13.30;;;9.23;;
41984;SDS011;28319;48.116;10.818;2023-03-01T19:05:21;12.63;;;9.37;;
41984;SDS011;28319;48.116;10.818;2023-03-01T19:10:23;15.50;;;8.90;;
41984;SDS011;28319;48.116;10.818;2023-03-01T19:15:27;14.63;;;10.30;;
41984;SDS011;28319;48.116;10.818;2023-03-01T19:20:31;15.87;;;9.80;;
41984;SDS011;28319;48.116;10.818;2023-03-01T19:25:33;14.63;;;9.13;;
41984;SDS011;28319;48.116;10.818;2023-03-01T19:30:36;12.83;;;8.47;;
41984;SDS011;28319;48.116;10.818;2023-03-01T19:35:40;24.03;;;11.07;;
41984;SDS011;28319;48.116;10.818;2023-03-01T19:40:42;14.53;;;9.20;;
41984;SDS011;28319;48.116;10.818;2023-03-01T19:45:48;17.67;;;11.67;;
41984;SDS011;28319;48.116;10.818;2023-03-01T19:50:52;15.50;;;9.80;;
41984;SDS011;28319;48.116;10.818;2023-03-01T19:55:58;16.03;;;10.50;;
41984;SDS011;28319;48.116;10.818;2023-03-01T20:01:01;18.07;;;10.40;;
41984;SDS011;28319;48.116;10.818;2023-03-01T20:06:08;12.93;;;8.13;;
41984;SDS011;28319;48.116;10.818;2023-03-01T20:11:11;13.73;;;9.17;;
41984;SDS011;28319;48.116;10.818;2023-03-01T20:16:14;12.60;;;8.57;;
41984;SDS011;28319;48.116;10.818;2023-03-01T20:21:18;16.30;;;10.30;;
41984;SDS011;28319;48.116;10.818;2023-03-01T20:26:21;14.20;;;8.93;;
41984;SDS011;28319;48.116;10.818;2023-03-01T20:31:25;14.70;;;9.87;;
41984;SDS011;28319;48.116;10.818;2023-03-01T20:36:29;15.37;;;9.00;;
41984;SDS011;28319;48.116;10.818;2023-03-01T20:41:32;14.10;;;8.97;;
41984;SDS011;28319;48.116;10.818;2023-03-01T20:46:35;15.63;;;9.27;;
41984;SDS011;28319;48.116;10.818;2023-03-01T20:51:39;13.50;;;8.80;;
41984;SDS011;28319;48.116;10.818;2023-03-01T20:56:41;14.80;;;9.20;;
41984;SDS011;28319;48.116;10.818;2023-03-01T21:01:44;13.40;;;8.77;;
41984;SDS011;28319;48.116;10.818;2023-03-01T21:06:47;15.87;;;10.17;;
41984;SDS011;28319;48.116;10.818;2023-03-01T21:11:49;15.13;;;9.23;;
41984;SDS011;28319;48.116;10.818;2023-03-01T21:16:52;12.40;;;7.83;;
41984;SDS011;28319;48.116;10.818;2023-03-01T21:21:55;15.27;;;8.60;;
41984;SDS011;28319;48.116;10.818;2023-03-01T21:26:58;13.77;;;8.67;;
41984;SDS011;28319;48.116;10.818;2023-03-01T21:32:05;12.80;;;8.60;;
41984;SDS011;28319;48.116;10.818;2023-03-01T21:37:09;13.23;;;8.43;;
41984;SDS011;28319;48.116;10.818;2023-03-01T21:42:12;16.13;;;8.87;;
41984;SDS011;28319;48.116;10.818;2023-03-01T21:47:14;20.00;;;11.30;;
41984;SDS011;28319;48.116;10.818;2023-03-01T21:52:17;14.13;;;8.77;;
41984;SDS011;28319;48.116;10.818;2023-03-01T21:57:20;12.73;;;8.63;;
41984;SDS011;28319;48.116;10.818;2023-03-01T22:02:22;15.60;;;9.13;;
41984;SDS011;28319;48.116;10.818;2023-03-01T22:07:25;19.23;;;11.37;;
41984;SDS011;28319;48.116;10.818;2023-03-01T22:12:28;25.73;;;14.07;;
41984;SDS011;28319;48.116;10.818;2023-03-01T22:17:30;22.53;;;12.83;;
41984;SDS011;28319;48.116;10.818;2023-03-01T22:22:34;21.37;;;12.43;;
41984;SDS011;28319;48.116;10.818;2023-03-01T22:27:36;18.93;;;11.67;;
41984;SDS011;28319;48.116;10.818;2023-03-01T22:32:39;22.60;;;11.47;;
41984;SDS011;28319;48.116;10.818;2023-03-01T22:37:43;21.43;;;11.77;;
41984;SDS011;28319;48.116;10.818;2023-03-01T22:42:45;21.17;;;12.23;;
41984;SDS011;28319;48.116;10.818;2023-03-01T22:47:47;19.23;;;11.70;;
41984;SDS011;28319;48.116;10.818;2023-03-01T22:52:51;19.27;;;11.70;;
41984;SDS011;28319;48.116;10.818;2023-03-01T22:57:53;34.97;;;17.60;;
41984;SDS011;28319;48.116;10.818;2023-03-01T23:02:55;22.77;;;12.70;;
41984;SDS011;28319;48.116;10.818;2023-03-01T23:07:59;20.43;;;11.40;;
41984;SDS011;28319;48.116;10.818;2023-03-01T23:13:01;19.27;;;11.60;;
41984;SDS011;28319;48.116;10.818;2023-03-01T23:18:04;20.23;;;11.07;;
41984;SDS011;28319;48.116;10.818;2023-03-01T23:23:07;17.20;;;10.43;;
41984;SDS011;28319;48.116;10.818;2023-03-01T23:28:09;18.87;;;10.97;;
41984;SDS011;28319;48.116;10.818;2023-03-01T23:33:12;19.93;;;10.87;;
41984;SDS011;28319;48.116;10.818;2023-03-01T23:38:15;18.10;;;9.97;;
41984;SDS011;28319;48.116;10.818;2023-03-01T23:43:19;13.33;;;9.27;;
41984;SDS011;28319;48.116;10.818;2023-03-01T23:48:21;16.70;;;9.73;;
41984;SDS011;28319;48.116;10.818;2023-03-01T23:53:25;16.57;;;10.23;;
41984;SDS011;28319;48.116;10.818;2023-03-01T23:58:27;20.43;;;10.93;;
